createdAt,value
2019-04-16T00:01:27.460Z,5.00
2019-04-16T00:04:01.215Z,4.90
2019-04-16T00:06:45.963Z,4.90
2019-04-16T00:09:34.711Z,4.80
2019-04-16T00:12:23.265Z,4.80
2019-04-16T00:14:53.512Z,4.70
2019-04-16T00:17:23.426Z,4.70
2019-04-16T00:19:52.892Z,4.70
2019-04-16T00:22:44.352Z,4.60
2019-04-16T00:25:13.930Z,4.60
2019-04-16T00:27:43.428Z,4.50
2019-04-16T00:30:13.886Z,4.50
2019-04-16T00:32:43.354Z,4.50
2019-04-16T00:35:15.496Z,4.40
2019-04-16T00:37:44.243Z,4.40
2019-04-16T00:40:13.442Z,4.30
2019-04-16T00:42:42.608Z,4.30
2019-04-16T00:45:12.232Z,4.30
2019-04-16T00:47:41.385Z,4.20
2019-04-16T00:50:10.979Z,4.20
2019-04-16T00:52:40.779Z,4.10
2019-04-16T00:55:13.696Z,4.10
2019-04-16T00:57:42.560Z,4.10
2019-04-16T01:00:11.795Z,4.00
2019-04-16T01:02:41.092Z,4.00
2019-04-16T01:05:10.233Z,3.90
2019-04-16T01:07:40.076Z,3.90
2019-04-16T01:10:09.575Z,3.80
2019-04-16T01:12:39.101Z,3.80
2019-04-16T01:15:08.832Z,3.70
2019-04-16T01:17:38.308Z,3.70
2019-04-16T01:20:11.651Z,3.70
2019-04-16T01:22:39.187Z,3.60
2019-04-16T01:25:08.387Z,3.60
2019-04-16T01:27:42.864Z,3.60
2019-04-16T01:30:13.730Z,3.60
2019-04-16T01:33:20.366Z,3.60
2019-04-16T01:36:02.322Z,3.60
2019-04-16T01:38:37.310Z,3.60
2019-04-16T01:41:09.724Z,3.60
2019-04-16T01:43:39.203Z,3.60
2019-04-16T01:46:09.272Z,3.50
2019-04-16T01:48:39.641Z,3.50
2019-04-16T01:51:09.366Z,3.50
2019-04-16T01:53:39.175Z,3.50
2019-04-16T01:56:08.300Z,3.40
2019-04-16T01:58:38.083Z,3.40
2019-04-16T02:01:08.146Z,3.40
2019-04-16T02:03:38.836Z,3.30
2019-04-16T02:06:08.316Z,3.30
2019-04-16T02:08:38.054Z,3.20
2019-04-16T02:11:09.929Z,3.20
2019-04-16T02:13:38.516Z,3.20
2019-04-16T02:16:08.326Z,3.20
2019-04-16T02:18:37.479Z,3.20
2019-04-16T02:21:09.631Z,3.20
2019-04-16T02:23:38.795Z,3.10
2019-04-16T02:26:08.333Z,3.10
2019-04-16T02:28:38.091Z,3.10
2019-04-16T02:31:13.764Z,3.10
2019-04-16T02:33:39.053Z,3.10
2019-04-16T02:36:08.967Z,3.10
2019-04-16T02:38:38.192Z,3.10
2019-04-16T02:41:07.993Z,3.10
2019-04-16T02:43:40.906Z,3.10
2019-04-16T02:46:08.412Z,3.10
2019-04-16T02:48:37.946Z,3.10
2019-04-16T02:51:29.196Z,3.00
2019-04-16T02:54:11.592Z,3.00
2019-04-16T02:56:53.180Z,2.90
2019-04-16T02:59:26.581Z,2.90
2019-04-16T03:02:23.104Z,2.90
2019-04-16T03:05:10.324Z,2.90
2019-04-16T03:07:39.559Z,2.90
2019-04-16T03:10:12.101Z,2.90
2019-04-16T03:12:39.967Z,2.80
2019-04-16T03:15:09.446Z,2.70
2019-04-16T03:17:43.777Z,2.70
2019-04-16T03:20:13.589Z,2.70
2019-04-16T03:22:43.197Z,2.60
2019-04-16T03:25:14.707Z,2.60
2019-04-16T03:27:44.375Z,2.60
2019-04-16T03:30:13.862Z,2.50
2019-04-16T03:32:52.168Z,2.40
2019-04-16T03:35:25.225Z,2.40
2019-04-16T03:37:52.801Z,2.40
2019-04-16T03:40:25.407Z,2.40
2019-04-16T03:42:53.402Z,2.40
2019-04-16T03:45:23.275Z,2.40
2019-04-16T03:47:52.803Z,2.30
2019-04-16T03:50:21.958Z,2.30
2019-04-16T03:52:51.867Z,2.30
2019-04-16T03:55:25.236Z,2.30
2019-04-16T03:57:52.484Z,2.30
2019-04-16T04:00:21.679Z,2.20
2019-04-16T04:02:53.888Z,2.20
2019-04-16T04:05:22.703Z,2.20
2019-04-16T04:07:55.059Z,2.20
2019-04-16T04:10:30.990Z,2.20
2019-04-16T04:12:57.154Z,2.20
2019-04-16T04:15:28.292Z,2.20
2019-04-16T04:17:57.811Z,2.10
2019-04-16T04:20:34.504Z,2.10
2019-04-16T04:23:04.058Z,2.00
2019-04-16T04:25:36.251Z,1.90
2019-04-16T04:28:05.164Z,1.90
2019-04-16T04:30:34.389Z,1.90
2019-04-16T04:33:07.431Z,1.90
2019-04-16T04:35:35.078Z,1.80
2019-04-16T04:38:04.948Z,1.80
2019-04-16T04:40:44.354Z,1.80
2019-04-16T04:43:05.411Z,1.80
2019-04-16T04:45:37.655Z,1.80
2019-04-16T04:48:07.188Z,1.80
2019-04-16T04:50:36.301Z,1.80
2019-04-16T04:53:06.087Z,1.80
2019-04-16T04:55:35.225Z,1.70
2019-04-16T04:58:04.384Z,1.80
2019-04-16T05:00:34.322Z,1.80
2019-04-16T05:03:03.982Z,1.80
2019-04-16T05:05:38.444Z,1.80
2019-04-16T05:08:07.932Z,1.80
2019-04-16T05:10:42.791Z,1.90
2019-04-16T05:13:08.378Z,1.90
2019-04-16T05:15:38.503Z,2.00
2019-04-16T05:18:09.771Z,2.00
2019-04-16T05:20:39.171Z,2.00
2019-04-16T05:23:08.337Z,2.00
2019-04-16T05:25:38.190Z,2.00
2019-04-16T05:28:11.591Z,2.10
2019-04-16T05:30:39.131Z,2.10
2019-04-16T05:33:09.043Z,2.10
2019-04-16T05:35:41.460Z,2.20
2019-04-16T05:38:10.329Z,2.20
2019-04-16T05:40:39.520Z,2.30
2019-04-16T05:43:09.335Z,2.40
2019-04-16T05:45:38.459Z,2.50
2019-04-16T05:48:07.855Z,2.50
2019-04-16T05:50:37.088Z,2.60
2019-04-16T05:53:08.448Z,2.80
2019-04-16T05:55:57.402Z,2.90
2019-04-16T05:58:27.507Z,3.00
2019-04-16T06:01:15.080Z,3.20
2019-04-16T06:03:44.754Z,3.40
2019-04-16T06:06:13.871Z,3.60
2019-04-16T06:08:43.307Z,3.70
2019-04-16T06:11:26.662Z,3.90
2019-04-16T06:14:05.156Z,4.00
2019-04-16T06:16:40.798Z,4.10
2019-04-16T06:19:28.989Z,4.20
2019-04-16T06:22:07.217Z,4.40
2019-04-16T06:25:08.330Z,4.70
2019-04-16T06:27:48.613Z,4.80
2019-04-16T06:30:33.820Z,5.20
2019-04-16T06:33:05.458Z,5.50
2019-04-16T06:36:18.658Z,6.00
2019-04-16T06:38:54.950Z,6.30
2019-04-16T06:41:47.084Z,6.50
2019-04-16T06:44:17.004Z,6.60
2019-04-16T06:47:11.889Z,6.80
2019-04-16T06:50:01.419Z,6.90
2019-04-16T06:52:53.060Z,7.00
2019-04-16T06:55:26.799Z,7.20
2019-04-16T06:58:06.539Z,7.30
2019-04-16T07:01:07.248Z,7.50
2019-04-16T07:04:01.906Z,7.60
2019-04-16T07:06:50.059Z,7.80
2019-04-16T07:09:40.880Z,8.00
2019-04-16T07:12:04.468Z,8.10
2019-04-16T07:14:36.073Z,8.20
2019-04-16T07:17:05.819Z,8.40
2019-04-16T07:19:34.933Z,8.50
2019-04-16T07:22:04.754Z,8.70
2019-04-16T07:24:36.608Z,8.80
2019-04-16T07:27:05.270Z,9.00
2019-04-16T07:29:38.977Z,9.10
2019-04-16T07:32:26.164Z,9.30
2019-04-16T07:35:07.500Z,9.50
2019-04-16T07:37:54.736Z,9.70
2019-04-16T07:40:41.955Z,9.80
2019-04-16T07:43:31.269Z,10.00
2019-04-16T07:46:18.498Z,10.20
2019-04-16T07:48:55.681Z,10.40
2019-04-16T07:51:46.855Z,10.50
2019-04-16T07:54:38.352Z,10.60
2019-04-16T07:57:08.486Z,10.70
2019-04-16T07:59:38.017Z,10.90
2019-04-16T08:02:07.593Z,11.10
2019-04-16T08:04:36.716Z,11.20
2019-04-16T08:07:06.223Z,11.40
2019-04-16T08:09:35.695Z,11.60
2019-04-16T08:12:11.178Z,11.70
2019-04-16T08:14:36.258Z,11.70
2019-04-16T08:17:05.832Z,11.80
2019-04-16T08:19:37.096Z,11.90
2019-04-16T08:22:07.059Z,12.10
2019-04-16T08:24:39.916Z,12.20
2019-04-16T08:27:10.457Z,12.30
2019-04-16T08:29:40.772Z,12.40
2019-04-16T08:32:12.888Z,12.50
2019-04-16T08:34:40.879Z,12.60
2019-04-16T08:37:10.727Z,12.80
2019-04-16T08:39:40.567Z,12.90
2019-04-16T08:42:10.559Z,13.10
2019-04-16T08:44:39.763Z,13.30
2019-04-16T08:47:12.311Z,13.30
2019-04-16T08:49:40.019Z,13.20
2019-04-16T08:52:10.165Z,13.30
2019-04-16T08:54:40.548Z,13.20
2019-04-16T08:57:09.688Z,13.30
2019-04-16T08:59:42.224Z,13.30
2019-04-16T09:02:10.395Z,13.30
2019-04-16T09:04:39.617Z,13.40
2019-04-16T09:07:13.008Z,13.50
2019-04-16T09:09:57.042Z,13.60
2019-04-16T09:12:25.435Z,13.60
2019-04-16T09:14:56.095Z,13.60
2019-04-16T09:17:30.109Z,13.70
2019-04-16T09:20:05.644Z,13.70
2019-04-16T09:22:48.339Z,13.80
2019-04-16T09:25:24.934Z,13.90
2019-04-16T09:28:00.746Z,14.00
2019-04-16T09:30:54.268Z,14.10
2019-04-16T09:33:30.381Z,14.20
2019-04-16T09:36:25.340Z,14.30
2019-04-16T09:39:01.693Z,14.40
2019-04-16T09:41:37.415Z,14.50
2019-04-16T09:44:07.323Z,14.60
2019-04-16T09:46:52.410Z,14.50
2019-04-16T09:49:08.083Z,14.60
2019-04-16T09:51:37.818Z,14.70
2019-04-16T09:54:12.698Z,14.70
2019-04-16T09:56:38.005Z,14.80
2019-04-16T09:59:11.035Z,14.80
2019-04-16T10:01:46.993Z,14.90
2019-04-16T10:04:18.209Z,14.90
2019-04-16T10:06:47.422Z,15.00
2019-04-16T10:09:20.979Z,15.00
2019-04-16T10:11:48.167Z,15.00
2019-04-16T10:14:17.512Z,15.00
2019-04-16T10:16:47.105Z,15.10
2019-04-16T10:19:17.157Z,15.30
2019-04-16T10:21:46.308Z,15.40
2019-04-16T10:24:40.664Z,15.50
2019-04-16T10:27:13.481Z,15.50
2019-04-16T10:29:43.387Z,15.50
2019-04-16T10:32:13.466Z,15.50
2019-04-16T10:34:43.337Z,15.50
2019-04-16T10:37:12.833Z,15.50
2019-04-16T10:40:07.166Z,15.60
2019-04-16T10:42:58.643Z,15.70
2019-04-16T10:46:02.465Z,15.80
2019-04-16T10:48:48.879Z,15.80
2019-04-16T10:51:43.790Z,16.00
2019-04-16T10:54:19.438Z,16.20
2019-04-16T10:57:14.590Z,16.20
2019-04-16T10:59:50.172Z,16.20
2019-04-16T11:02:31.147Z,16.30
2019-04-16T11:05:15.244Z,16.50
2019-04-16T11:07:45.244Z,16.40
2019-04-16T11:10:14.814Z,16.30
2019-04-16T11:12:44.063Z,16.20
2019-04-16T11:15:17.177Z,16.20
2019-04-16T11:17:46.396Z,16.30
2019-04-16T11:20:16.930Z,16.40
2019-04-16T11:22:46.588Z,16.40
2019-04-16T11:25:16.309Z,16.40
2019-04-16T11:27:45.490Z,16.40
2019-04-16T11:30:31.139Z,16.50
2019-04-16T11:33:00.526Z,16.50
2019-04-16T11:35:30.378Z,16.70
2019-04-16T11:37:59.567Z,16.70
2019-04-16T11:40:29.621Z,16.70
2019-04-16T11:42:59.499Z,16.60
2019-04-16T11:45:29.409Z,16.60
2019-04-16T11:47:58.932Z,16.60
2019-04-16T11:50:28.463Z,16.70
2019-04-16T11:52:58.695Z,16.70
2019-04-16T11:55:28.508Z,16.80
2019-04-16T11:57:57.746Z,16.90
2019-04-16T12:00:34.313Z,16.90
2019-04-16T12:03:21.895Z,16.80
2019-04-16T12:06:10.534Z,16.80
2019-04-16T12:08:59.083Z,16.80
2019-04-16T12:11:40.581Z,16.70
2019-04-16T12:14:35.197Z,16.50
2019-04-16T12:17:14.460Z,16.30
2019-04-16T12:20:02.363Z,16.20
2019-04-16T12:22:39.045Z,16.10
2019-04-16T12:25:18.116Z,16.10
2019-04-16T12:28:11.610Z,16.10
2019-04-16T12:31:04.006Z,16.00
2019-04-16T12:33:44.261Z,15.90
2019-04-16T12:36:33.504Z,15.90
2019-04-16T12:39:21.179Z,15.90
2019-04-16T12:42:09.763Z,15.80
2019-04-16T12:44:46.258Z,15.90
2019-04-16T12:47:29.995Z,15.80
2019-04-16T12:50:17.703Z,15.90
2019-04-16T12:53:06.747Z,15.90
2019-04-16T12:55:58.736Z,15.90
2019-04-16T12:58:51.365Z,15.90
2019-04-16T13:01:38.715Z,15.90
2019-04-16T13:04:30.406Z,15.90
2019-04-16T13:07:12.205Z,15.90
2019-04-16T13:09:53.707Z,15.80
2019-04-16T13:12:36.924Z,15.60
2019-04-16T13:15:31.572Z,15.50
2019-04-16T13:18:32.460Z,15.40
2019-04-16T13:21:21.315Z,15.30
2019-04-16T13:23:57.979Z,15.30
2019-04-16T13:26:33.644Z,15.30
2019-04-16T13:29:07.244Z,15.20
2019-04-16T13:31:38.969Z,15.20
2019-04-16T13:34:08.115Z,15.30
2019-04-16T13:36:37.391Z,15.40
2019-04-16T13:39:26.983Z,15.50
2019-04-16T13:41:56.172Z,15.50
2019-04-16T13:44:28.150Z,15.60
2019-04-16T13:47:01.179Z,15.70
2019-04-16T13:49:37.322Z,15.80
2019-04-16T13:52:06.797Z,15.80
2019-04-16T13:54:54.736Z,15.70
2019-04-16T13:57:24.680Z,15.70
2019-04-16T13:59:55.687Z,15.70
2019-04-16T14:02:47.705Z,15.70
2019-04-16T14:05:17.984Z,15.70
2019-04-16T14:07:47.603Z,15.80
2019-04-16T14:10:16.806Z,15.80
2019-04-16T14:12:46.375Z,15.90
2019-04-16T14:15:30.788Z,15.90
2019-04-16T14:17:52.860Z,16.00
2019-04-16T14:20:19.360Z,16.00
2019-04-16T14:22:53.326Z,15.90
2019-04-16T14:25:19.739Z,15.90
2019-04-16T14:27:49.234Z,15.90
2019-04-16T14:30:21.515Z,15.90
2019-04-16T14:32:51.032Z,15.90
2019-04-16T14:35:33.102Z,15.90
2019-04-16T14:37:54.176Z,15.90
2019-04-16T14:40:24.243Z,15.90
2019-04-16T14:42:57.450Z,16.00
2019-04-16T14:45:57.461Z,15.90
2019-04-16T14:48:18.945Z,15.90
2019-04-16T14:50:48.222Z,15.90
2019-04-16T14:53:35.266Z,15.90
2019-04-16T14:56:11.772Z,15.80
2019-04-16T14:58:54.603Z,15.70
2019-04-16T15:01:31.089Z,15.70
2019-04-16T15:04:20.185Z,15.70
2019-04-16T15:07:07.370Z,15.60
2019-04-16T15:10:02.300Z,15.50
2019-04-16T15:12:49.612Z,15.50
2019-04-16T15:15:41.056Z,15.40
2019-04-16T15:18:15.369Z,15.40
2019-04-16T15:21:03.407Z,15.30
2019-04-16T15:24:02.603Z,15.30
2019-04-16T15:26:44.829Z,15.20
2019-04-16T15:29:31.624Z,15.10
2019-04-16T15:32:12.599Z,15.00
2019-04-16T15:34:45.273Z,14.90
2019-04-16T15:37:36.675Z,14.80
2019-04-16T15:40:15.236Z,14.80
2019-04-16T15:42:56.915Z,14.70
2019-04-16T15:45:36.669Z,14.60
2019-04-16T15:48:24.929Z,14.60
2019-04-16T15:51:19.254Z,14.60
2019-04-16T15:53:55.544Z,14.50
2019-04-16T15:56:41.607Z,14.40
2019-04-16T15:59:18.462Z,14.40
2019-04-16T16:02:06.502Z,14.30
2019-04-16T16:04:49.284Z,14.20
2019-04-16T16:07:25.209Z,14.10
2019-04-16T16:10:17.208Z,14.00
2019-04-16T16:12:47.242Z,14.00
2019-04-16T16:15:16.793Z,13.90
2019-04-16T16:17:46.274Z,13.80
2019-04-16T16:20:16.226Z,13.80
2019-04-16T16:22:45.998Z,13.80
2019-04-16T16:25:15.532Z,13.80
2019-04-16T16:27:47.136Z,13.80
2019-04-16T16:30:16.371Z,13.80
2019-04-16T16:32:46.180Z,13.80
2019-04-16T16:35:17.725Z,13.80
2019-04-16T16:37:46.625Z,13.80
2019-04-16T16:40:17.060Z,13.80
2019-04-16T16:42:46.201Z,13.80
2019-04-16T16:45:15.492Z,13.70
2019-04-16T16:47:44.729Z,13.70
2019-04-16T16:50:16.558Z,13.70
2019-04-16T16:53:05.554Z,13.70
2019-04-16T16:55:49.589Z,13.70
2019-04-16T16:58:40.734Z,13.60
2019-04-16T17:01:33.587Z,13.60
2019-04-16T17:04:18.563Z,13.60
2019-04-16T17:06:48.172Z,13.50
2019-04-16T17:09:31.268Z,13.50
2019-04-16T17:12:00.876Z,13.40
2019-04-16T17:14:30.660Z,13.40
2019-04-16T17:17:12.175Z,13.40
2019-04-16T17:19:31.381Z,13.30
2019-04-16T17:22:01.092Z,13.30
2019-04-16T17:24:30.763Z,13.30
2019-04-16T17:27:00.519Z,13.30
2019-04-16T17:29:30.003Z,13.30
2019-04-16T17:31:59.247Z,13.30
2019-04-16T17:34:28.720Z,13.20
2019-04-16T17:36:58.252Z,13.20
2019-04-16T17:39:42.241Z,13.20
2019-04-16T17:42:10.103Z,13.20
2019-04-16T17:45:01.653Z,13.10
2019-04-16T17:47:48.972Z,13.10
2019-04-16T17:50:33.379Z,13.00
2019-04-16T17:53:16.040Z,13.00
2019-04-16T17:56:16.281Z,13.00
2019-04-16T17:59:10.737Z,12.90
2019-04-16T18:02:14.791Z,12.90
2019-04-16T18:05:03.900Z,12.80
2019-04-16T18:07:51.127Z,12.70
2019-04-16T18:10:45.769Z,12.70
2019-04-16T18:13:20.060Z,12.60
2019-04-16T18:15:55.303Z,12.50
2019-04-16T18:18:29.083Z,12.40
2019-04-16T18:21:16.769Z,12.40
2019-04-16T18:23:58.813Z,12.30
2019-04-16T18:26:59.480Z,12.30
2019-04-16T18:29:37.555Z,12.20
2019-04-16T18:32:44.256Z,12.20
2019-04-16T18:35:27.757Z,12.20
2019-04-16T18:38:06.322Z,12.10
2019-04-16T18:40:52.488Z,12.10
2019-04-16T18:43:45.884Z,12.00
2019-04-16T18:46:34.408Z,12.00
2019-04-16T18:49:06.508Z,11.90
2019-04-16T18:51:35.654Z,11.90
2019-04-16T18:54:05.207Z,11.90
2019-04-16T18:56:34.680Z,11.90
2019-04-16T18:59:04.184Z,11.80
2019-04-16T19:01:33.697Z,11.80
2019-04-16T19:04:03.587Z,11.70
2019-04-16T19:06:32.844Z,11.70
2019-04-16T19:09:02.008Z,11.70
2019-04-16T19:11:31.515Z,11.60
2019-04-16T19:14:01.256Z,11.60
2019-04-16T19:16:30.539Z,11.60
2019-04-16T19:19:00.359Z,11.60
2019-04-16T19:21:30.231Z,11.60
2019-04-16T19:24:00.647Z,11.50
2019-04-16T19:26:30.525Z,11.50
2019-04-16T19:28:59.812Z,11.40
2019-04-16T19:31:29.580Z,11.40
2019-04-16T19:33:58.944Z,11.40
2019-04-16T19:36:28.138Z,11.30
2019-04-16T19:38:57.362Z,11.30
2019-04-16T19:41:26.892Z,11.20
2019-04-16T19:43:56.641Z,11.20
2019-04-16T19:46:26.629Z,11.20
2019-04-16T19:48:56.726Z,11.10
2019-04-16T19:51:27.417Z,11.10
2019-04-16T19:53:57.519Z,11.00
2019-04-16T19:56:26.663Z,11.00
2019-04-16T19:58:55.832Z,11.00
2019-04-16T20:01:25.628Z,10.90
2019-04-16T20:03:55.258Z,10.90
2019-04-16T20:06:26.155Z,10.90
2019-04-16T20:08:56.195Z,10.90
2019-04-16T20:11:25.675Z,10.90
2019-04-16T20:13:54.915Z,10.80
2019-04-16T20:16:24.060Z,10.80
2019-04-16T20:18:54.023Z,10.80
2019-04-16T20:21:23.574Z,10.80
2019-04-16T20:23:53.113Z,10.80
2019-04-16T20:26:22.817Z,10.80
2019-04-16T20:28:52.434Z,10.80
2019-04-16T20:31:21.944Z,10.80
2019-04-16T20:33:51.096Z,10.80
2019-04-16T20:36:22.857Z,10.80
2019-04-16T20:38:51.709Z,10.80
2019-04-16T20:41:21.132Z,10.80
2019-04-16T20:43:50.721Z,10.80
2019-04-16T20:46:19.855Z,10.80
2019-04-16T20:49:05.732Z,10.80
2019-04-16T20:51:26.258Z,10.80
2019-04-16T20:53:52.523Z,10.80
2019-04-16T20:56:22.052Z,10.80
2019-04-16T20:58:51.197Z,10.70
2019-04-16T21:01:32.794Z,10.70
2019-04-16T21:04:04.668Z,10.70
2019-04-16T21:06:28.875Z,10.70
2019-04-16T21:08:58.699Z,10.60
2019-04-16T21:11:28.284Z,10.60
2019-04-16T21:13:57.702Z,10.60
2019-04-16T21:16:27.209Z,10.50
2019-04-16T21:18:56.717Z,10.50
2019-04-16T21:21:26.766Z,10.50
2019-04-16T21:23:56.019Z,10.50
2019-04-16T21:26:25.839Z,10.40
2019-04-16T21:29:02.196Z,10.40
2019-04-16T21:31:35.191Z,10.30
2019-04-16T21:34:24.256Z,10.30
2019-04-16T21:37:21.359Z,10.30
2019-04-16T21:39:58.372Z,10.30
2019-04-16T21:42:28.662Z,10.20
2019-04-16T21:44:58.227Z,10.20
2019-04-16T21:47:27.442Z,10.10
2019-04-16T21:49:57.040Z,10.10
2019-04-16T21:52:26.526Z,10.10
2019-04-16T21:54:56.064Z,10.00
2019-04-16T21:57:25.471Z,10.00
2019-04-16T21:59:58.128Z,10.00
2019-04-16T22:02:29.561Z,9.90
2019-04-16T22:04:59.667Z,9.90
2019-04-16T22:07:29.127Z,9.90
2019-04-16T22:09:58.640Z,9.80
2019-04-16T22:12:27.764Z,9.80
2019-04-16T22:14:57.523Z,9.80
2019-04-16T22:17:27.217Z,9.80
2019-04-16T22:20:01.522Z,9.80
2019-04-16T22:22:28.178Z,9.70
2019-04-16T22:24:57.752Z,9.70
2019-04-16T22:27:27.589Z,9.70
2019-04-16T22:29:56.991Z,9.70
2019-04-16T22:32:27.110Z,9.70
2019-04-16T22:34:58.132Z,9.60
2019-04-16T22:37:27.677Z,9.60
2019-04-16T22:40:23.583Z,9.60
2019-04-16T22:43:11.862Z,9.50
2019-04-16T22:45:56.515Z,9.50
2019-04-16T22:48:25.675Z,9.50
2019-04-16T22:50:55.006Z,9.40
2019-04-16T22:53:24.861Z,9.40
2019-04-16T22:55:56.735Z,9.40
2019-04-16T22:58:25.920Z,9.40
2019-04-16T23:01:03.147Z,9.40
2019-04-16T23:03:32.716Z,9.40
2019-04-16T23:06:06.314Z,9.40
2019-04-16T23:08:33.430Z,9.40
2019-04-16T23:11:02.960Z,9.30
2019-04-16T23:13:33.215Z,9.30
2019-04-16T23:16:03.185Z,9.30
2019-04-16T23:18:32.723Z,9.30
2019-04-16T23:21:02.644Z,9.30
2019-04-16T23:23:32.103Z,9.30
2019-04-16T23:26:01.574Z,9.30
2019-04-16T23:28:31.434Z,9.30
2019-04-16T23:31:00.580Z,9.20
2019-04-16T23:33:32.789Z,9.30
2019-04-16T23:36:01.629Z,9.30
2019-04-16T23:38:32.396Z,9.30
2019-04-16T23:41:01.959Z,9.30
2019-04-16T23:43:50.550Z,9.30
2019-04-16T23:46:41.671Z,9.30
2019-04-16T23:49:45.475Z,9.20
2019-04-16T23:52:35.323Z,9.20
2019-04-16T23:55:09.681Z,9.20
2019-04-16T23:57:56.666Z,9.20
